Hudson — CGDG — position and weather

sailwx.info

Track history (hours):
 
Tides and Currents Weather Stations Pressure Air Temp Water Temp Dewpoint Dewpoint Depression Visibility Wind Speed Wind Dir Waves Ship Positions

Oceanographic research ship Hudson (Canada)

Detailed information on ship capabilities available from University of Delaware's Ocean Information Center.

Last reported at 2019-Apr-22 11:00 UTC. Time now 2019-Jun-19 21:07 UTC.
Position N 47°36' W 052°42'.
Warning: this ship's position is 58 days out of date.

Length 85.03 m; beam 15.2 m; draft 6.28 m.

Type: SAR. MMSI: 316024000.

Wind from 210 at 15 knots

Barometer 1021.1 mb
Air temperature 15.5 ° C
Dewpoint 15.6 ° C

Date/timePositionNaut miles runAvg speedWind from/ knotsBaromVisibWave heightAir tempDewpointWater temp
2019-Apr-22 11:00N 47°36' W 052°42'0 0.0 210 / 151021.1 15.515.6
2019-Apr-22 10:00N 47°36' W 052°42'0 0.0 210 / 161021.1 14.314.5
2019-Apr-22 09:00N 47°36' W 052°42'0 0.0 200 / 161021.3 13.914.0
2019-Apr-22 08:00N 47°36' W 052°42'0 0.0 210 / 171021.3 14.414.4
2019-Apr-22 06:00N 47°36' W 052°42'0 0.0 200 / 161022.8 14.013.9
2019-Apr-22 04:00N 47°36' W 052°42'0 0.0 200 / 121024.3 14.814.7
2019-Apr-22 02:00N 47°36' W 052°42'0 0.0 200 / 101025.9 13.813.8
2019-Apr-22 01:00N 47°36' W 052°42'0 0.0 200 / 91026.5 13.013.2
2019-Apr-22 00:00N 47°36' W 052°42'28123028.7 200 / 101027.1 12.913.2
2019-Apr-21 23:04N 49°02' W 123°09'28122625.1
2019-Apr-21 22:00N 47°36' W 052°42'0 0.0 200 / 91027.5 12.913.1
2019-Apr-21 21:00N 47°36' W 052°42'0 0.0 200 / 71027.7 11.912.2
2019-Apr-21 19:00N 47°36' W 052°42'0 0.0 210 / 81029.5 6.9 7.1
2019-Apr-21 18:00N 47°36' W 052°42'0 0.0 210 / 71030.7 4.7 4.9
2019-Apr-21 17:00N 47°36' W 052°42'0 0.0 220 / 51031.5 4.6 4.7
2019-Apr-21 16:00N 47°36' W 052°42'0 0.0 200 / 61032.7 4.3 4.5
2019-Apr-21 15:00N 47°36' W 052°42'0 0.0 200 / 51033.0 4.6 4.7
2019-Apr-21 14:00N 47°36' W 052°42'0 0.0 240 / 31033.7 5.0 5.1
2019-Apr-21 12:00N 47°36' W 052°42'0 0.0 190 / 41033.1 5.2 5.2
2019-Apr-21 11:00N 47°36' W 052°42'0 0.0 160 / 11032.8 5.2 5.5
2019-Apr-21 08:00N 47°36' W 052°42'0 0.0 200 / 21031.1 1.6 1.9
2019-Apr-21 07:00N 47°36' W 052°42'0 0.0 190 / 21031.3 1.9 2.2
2019-Apr-21 06:00N 47°36' W 052°42'0 0.0 040 / 11030.0 2.0 2.3
2019-Apr-21 05:00N 47°36' W 052°42'0 0.0 040 / 31029.5 1.9 2.2
2019-Apr-21 04:00N 47°36' W 052°42'0 0.0 020 / 31028.6 2.3 2.7
2019-Apr-21 02:00N 47°36' W 052°42'0 0.0 350 / 11027.1 2.1 2.4
2019-Apr-21 01:00N 47°36' W 052°42'28124146.1 350 / 21026.6 1.6 1.9
2019-Apr-21 00:19N 49°02' W 123°09'28128743.4
2019-Apr-21 00:00N 47°36' W 052°42'0 0.0 020 / 61025.8 1.8 2.1
2019-Apr-20 23:00N 47°36' W 052°42'0 0.0 010 / 61024.8 3.1 3.4
2019-Apr-20 22:00N 47°36' W 052°42'0 0.0 030 / 51024.2 3.4 3.6
2019-Apr-20 21:00N 47°36' W 052°42'0 0.0 330 / 11022.4 4.6 4.9
2019-Apr-20 20:00N 47°36' W 052°42'0 0.0 030 / 51022.6 4.8 5.0
2019-Apr-20 19:00N 47°36' W 052°42'0 0.0 060 / 51022.7 5.6 5.8
2019-Apr-20 17:00N 47°36' W 052°42'0 0.0 070 / 61021.5 6.0 6.2
2019-Apr-20 16:00N 47°36' W 052°42'0 0.0 010 / 31020.7 5.8 5.9
2019-Apr-20 15:00N 47°36' W 052°42'0 0.0 230 / 21020.2 6.6 6.8
2019-Apr-20 14:00N 47°36' W 052°42'0 0.0 190 / 41019.7 6.1 6.3
2019-Apr-20 13:00N 47°36' W 052°42'0 0.0 200 / 41019.2 5.8 6.0
2019-Apr-20 11:00N 47°36' W 052°42'0 0.0 190 / 31017.2 5.7 6.0
2019-Apr-20 10:00N 47°36' W 052°42'0 0.0 200 / 51016.7 5.6 5.9
2019-Apr-20 09:00N 47°36' W 052°42'0 0.0 200 / 71015.7 5.7 5.9
2019-Apr-20 08:00N 47°36' W 052°42'0 0.0 210 / 81014.4 6.1 6.4
2019-Apr-20 07:00N 47°36' W 052°42'0 0.0 210 / 61013.3 6.2 6.4
2019-Apr-20 06:00N 47°36' W 052°42'0 0.0 210 / 101012.9 6.1 6.3
2019-Apr-20 05:00N 47°36' W 052°42'0 0.0 200 / 111012.6 6.0 6.1
2019-Apr-20 04:00N 47°36' W 052°42'0 0.0 200 / 121013.1 5.7 5.9
2019-Apr-20 02:00N 47°36' W 052°42'0 0.0 200 / 101015.5 2.9 3.0
2019-Apr-20 01:00N 47°36' W 052°42'0 0.0 200 / 121017.0 1.9 2.0
2019-Apr-19 23:00N 47°36' W 052°42'0 0.0 190 / 111018.1 0.7 0.7
2019-Apr-19 22:00N 47°36' W 052°42'0 0.0 190 / 121019.8 0.1 0.1
2019-Apr-19 20:00N 47°36' W 052°42'0 0.0 190 / 91021.9 0.1-0.0
2019-Apr-19 19:00N 47°36' W 052°42'0 0.0 190 / 71023.4 2.0-6.0
2019-Apr-19 18:00N 47°36' W 052°42'0 0.0 190 / 121024.7 3.1-7.8
2019-Apr-19 17:00N 47°36' W 052°42'0 0.0 200 / 131025.4 4.0-12.0
2019-Apr-19 15:00N 47°36' W 052°42'0 0.0 200 / 121026.2 5.4-11.1
2019-Apr-19 14:00N 47°36' W 052°42'0 0.0 200 / 101026.4 5.1-9.0
2019-Apr-19 13:00N 47°36' W 052°42'0 0.0 200 / 111026.9 4.4-10.4
2019-Apr-19 10:00N 47°36' W 052°42'0 0.0 190 / 41027.3 -2.8-2.9
2019-Apr-19 09:00N 47°36' W 052°42'0 0.0 190 / 51027.3 -4.7-4.8
2019-Apr-19 08:00N 47°36' W 052°42'0 0.0 190 / 41026.7 -5.0-5.1
2019-Apr-19 07:00N 47°36' W 052°42'0 0.0 200 / 31026.6 -5.1-5.3
2019-Apr-19 06:00N 47°36' W 052°42'0 0.0 200 / 31026.7 -4.7-4.9
2019-Apr-19 05:00N 47°36' W 052°42'0 0.0 200 / 41026.9 -4.3-4.8
2019-Apr-19 04:00N 47°36' W 052°42'0 0.0 190 / 51027.3 -3.8-5.3
2019-Apr-19 03:00N 47°36' W 052°42'0 0.0 200 / 41027.5 -3.0-5.9
2019-Apr-19 02:00N 47°36' W 052°42'0 0.0 200 / 21027.1 -2.2-6.3
2019-Apr-19 01:00N 47°36' W 052°42'0 0.0 010 / 31026.6 -0.6-7.5
2019-Apr-19 00:00N 47°36' W 052°42'0 0.0 350 / 21026.2 -0.1-8.1
2019-Apr-18 23:00N 47°36' W 052°42'0 0.0 300 / 31025.6 0.3-9.1
2019-Apr-18 22:00N 47°36' W 052°42'0 0.0 320 / 51024.9 0.4-9.7
2019-Apr-18 21:00N 47°36' W 052°42'0 0.0 320 / 41023.6 0.7-8.3
2019-Apr-18 20:00N 47°36' W 052°42'0 0.0 330 / 41022.7 1.0-7.1
2019-Apr-18 19:00N 47°36' W 052°42'0 0.0 320 / 61021.8 1.2-6.8
2019-Apr-18 18:00N 47°36' W 052°42'0 0.0 330 / 61021.0 1.2-6.6
2019-Apr-18 17:00N 47°36' W 052°42'0 0.0 320 / 51020.5 0.9-5.5
2019-Apr-18 16:00N 47°36' W 052°42'0 0.0 330 / 41019.5 1.0-5.1
2019-Apr-18 15:00N 47°36' W 052°42'0 0.0 320 / 71018.6 0.8-4.2
2019-Apr-18 13:00N 47°36' W 052°42'0 0.0 320 / 51017.0 0.3-2.1
2019-Apr-18 12:00N 47°36' W 052°42'0 0.0 320 / 51016.0 -0.1-1.9
2019-Apr-18 11:00N 47°36' W 052°42'0 0.0 320 / 61015.0 -0.2-1.6
2019-Apr-18 09:00N 47°36' W 052°42'0 0.0 330 / 41012.3 -0.4-1.8
2019-Apr-18 08:00N 47°36' W 052°42'0 0.0 320 / 61010.8 -0.5-1.9
2019-Apr-18 07:00N 47°36' W 052°42'0 0.0 300 / 51009.8 -0.4-2.0
2019-Apr-18 06:00N 47°36' W 052°42'0 0.0 330 / 41008.9 -0.2-2.1
2019-Apr-18 05:00N 47°36' W 052°42'0 0.0 330 / 61008.0 -0.1-1.9
2019-Apr-18 04:00N 47°36' W 052°42'0 0.0 330 / 61007.2 -0.0-1.3
2019-Apr-18 03:00N 47°36' W 052°42'0 0.0 340 / 41006.3 -0.1-0.4
2019-Apr-18 02:00N 47°36' W 052°42'0 0.0 330 / 61005.2 -0.0-0.2
2019-Apr-18 00:00N 47°36' W 052°42'0 0.0 350 / 71002.3 0.3 0.1
2019-Apr-17 23:00N 47°36' W 052°42'0 0.0 350 / 81000.4 0.4 0.2
2019-Apr-17 22:00N 47°36' W 052°42'0 0.0 350 / 9998.2 0.5 0.4
2019-Apr-17 21:00N 47°36' W 052°42'0 0.0 360 / 9996.0 0.8 0.7
2019-Apr-17 19:00N 47°36' W 052°42'0 0.0 360 / 11991.7 1.7 1.5
2019-Apr-17 18:00N 47°36' W 052°42'0 0.0 350 / 8989.7 2.2 2.0
2019-Apr-17 17:00N 47°36' W 052°42'0 0.0 340 / 8988.0 2.2 2.0
2019-Apr-17 16:00N 47°36' W 052°42'0 0.0 330 / 8986.5 2.1 1.9
2019-Apr-17 15:00N 47°36' W 052°42'28122875.6 340 / 7985.2 2.0 1.9
2019-Apr-17 14:01N 49°02' W 123°09'2812128162.6
2019-Apr-17 14:00N 47°36' W 052°42'0 0.0 330 / 6983.7 1.7 1.7
2019-Apr-17 13:00N 47°36' W 052°42'0 0.0 310 / 3982.5 1.6 1.6
2019-Apr-17 12:00N 47°36' W 052°42'0 0.0 250 / 4981.4 1.5 1.5
2019-Apr-17 10:00N 47°36' W 052°42'0 0.0 200 / 10980.1 0.7 0.7
2019-Apr-17 09:00N 47°36' W 052°42'0 0.0 210 / 10979.5 0.7 0.6
2019-Apr-17 08:00N 47°36' W 052°42'0 0.0 200 / 9979.1 0.6 0.6
2019-Apr-17 07:00N 47°36' W 052°42'0 0.0 210 / 9979.2 0.9 0.9
2019-Apr-17 05:00N 47°36' W 052°42'0 0.0 200 / 8979.7 1.4 1.3
2019-Apr-17 03:00N 47°36' W 052°42'0 0.0 190 / 7980.5 1.6 1.5
2019-Apr-17 02:00N 47°36' W 052°42'0 0.0 200 / 11980.6 1.7 1.7
2019-Apr-17 01:00N 47°36' W 052°42'0 0.0 200 / 10981.6 2.0 2.0
2019-Apr-17 00:00N 47°36' W 052°42'0 0.0 190 / 11982.4 2.3 2.3
2019-Apr-16 23:00N 47°36' W 052°42'0 0.0 200 / 8983.1 2.8 2.8
2019-Apr-16 22:00N 47°36' W 052°42'0 0.0 200 / 10983.4 3.5 3.5
2019-Apr-16 21:00N 47°36' W 052°42'0 0.0 200 / 12983.8 5.2 5.2
2019-Apr-16 20:00N 47°36' W 052°42'0 0.0 200 / 11984.2 6.0 6.1
2019-Apr-16 17:00N 47°36' W 052°42'0 0.0 200 / 12986.5 9.4 9.6
2019-Apr-16 16:00N 47°36' W 052°42'0 0.0 010 / 2987.8 5.1 5.4
2019-Apr-16 15:00N 47°36' W 052°42'0 0.0 360 / 1989.0 3.8 4.1
2019-Apr-16 14:00N 47°36' W 052°42'0 0.0 010 / 3990.3 2.6 2.9
2019-Apr-16 13:00N 47°36' W 052°42'0 0.0 010 / 2991.3 1.9 2.1
2019-Apr-16 12:00N 47°36' W 052°42'0 0.0 200 / 1992.5 1.4 1.7
2019-Apr-16 11:00N 47°36' W 052°42'28121072.2 360 / 1993.1 1.1 1.3
2019-Apr-16 08:22N 49°02' W 123°09'28122042.5
2019-Apr-16 07:00N 47°36' W 052°42'0 0.0 999.9 0.1 0.2
2019-Apr-16 06:00N 47°36' W 052°42'0 0.0 080 / 11001.2 -0.4-0.3
2019-Apr-16 05:00N 47°36' W 052°42'0 0.0 050 / 61004.0 -0.7-0.7
2019-Apr-16 04:00N 47°36' W 052°42'0 0.0 110 / 21006.0 -0.6-0.6
2019-Apr-16 02:00N 47°36' W 052°42'0 0.0 030 / 21008.7 -0.4-0.4
2019-Apr-16 00:00N 47°36' W 052°42'0 0.0 140 / 11012.6 -0.4-0.6
2019-Apr-15 22:00N 47°36' W 052°42'0 0.0 200 / 11013.9 0.4-3.5
2019-Apr-15 21:00N 47°36' W 052°42'0 0.0 210 / 31014.3 0.9-6.4
2019-Apr-15 20:00N 47°36' W 052°42'0 0.0 210 / 41014.5 1.4-7.6
2019-Apr-15 19:00N 47°36' W 052°42'0 0.0 210 / 21015.2 2.6-9.5
2019-Apr-15 18:00N 47°36' W 052°42'0 0.0 200 / 71015.6 2.6-10.2
2019-Apr-15 17:00N 47°36' W 052°42'0 0.0 170 / 71015.7 3.8-12.1
2019-Apr-15 16:00N 47°36' W 052°42'0 0.0 120 / 41015.8 4.5-9.1
2019-Apr-15 15:00N 47°36' W 052°42'0 0.0 120 / 71015.4 4.6-8.5
2019-Apr-15 14:00N 47°36' W 052°42'0 0.0 100 / 51015.9 4.9-5.7
2019-Apr-15 13:00N 47°36' W 052°42'28122548.4 350 / 21016.7 3.7-1.3
2019-Apr-15 11:53N 49°02' W 123°09'28123137.5
2019-Apr-15 11:00N 47°36' W 052°42'0 0.0 020 / 21015.5 2.1-0.9
2019-Apr-15 10:00N 47°36' W 052°42'0 0.0 190 / 41015.2 -0.3-0.5
2019-Apr-15 09:00N 47°36' W 052°42'0 0.0 190 / 41014.9 -1.6-1.8
2019-Apr-15 08:00N 47°36' W 052°42'0 0.0 150 / 11013.7 -0.4-1.4
2019-Apr-15 07:00N 47°36' W 052°42'0 0.0 010 / 11013.1 0.4-1.7
2019-Apr-15 06:00N 47°36' W 052°42'0 0.0 290 / 11012.4 1.1-1.9
2019-Apr-15 05:00N 47°36' W 052°42'0 0.0 340 / 11011.5 2.1-2.3
2019-Apr-15 03:00N 47°36' W 052°42'0 0.0 210 / 21010.5 2.5-1.5
2019-Apr-15 02:00N 47°36' W 052°42'0 0.0 310 / 21009.9 3.1-2.3
2019-Apr-15 01:00N 47°36' W 052°42'0 0.0 310 / 31008.9 3.2-1.7
2019-Apr-15 00:00N 47°36' W 052°42'0 0.0 320 / 31007.4 3.7-0.3
2019-Apr-14 23:00N 47°36' W 052°42'0 0.0 350 / 41005.8 3.8 1.9
2019-Apr-14 19:00N 47°36' W 052°42'0 0.0 230 / 111000.2 9.2-0.9
2019-Apr-14 18:00N 47°36' W 052°42'0 0.0 230 / 10999.4 10.4 1.5
2019-Apr-14 17:00N 47°36' W 052°42'0 0.0 230 / 9999.9 9.7 5.9
2019-Apr-14 16:00N 47°36' W 052°42'0 0.0 230 / 91000.2 7.9 7.2
2019-Apr-14 15:00N 47°36' W 052°42'0 0.0 230 / 11999.6 7.4 7.2
2019-Apr-14 13:00N 47°36' W 052°42'0 0.0 220 / 81000.6 5.6 5.7
2019-Apr-14 12:00N 47°36' W 052°42'0 0.0 210 / 71000.6 6.5 6.6
2019-Apr-14 11:00N 47°36' W 052°42'0 0.0 190 / 41001.4 4.9 5.0
2019-Apr-14 10:00N 47°36' W 052°42'0 0.0 190 / 71002.7 3.6 3.7
2019-Apr-14 09:00N 47°36' W 052°42'0 0.0 190 / 31003.3 3.1 3.2
2019-Apr-14 08:00N 47°36' W 052°42'0 0.0 200 / 31003.2 2.6 2.7
2019-Apr-14 07:00N 47°36' W 052°42'0 0.0 230 / 21004.2 2.5 2.5
2019-Apr-14 06:00N 47°36' W 052°42'0 0.0 190 / 71005.7 2.1 2.1
2019-Apr-14 05:00N 47°36' W 052°42'0 0.0 200 / 61007.6 1.8 1.7
2019-Apr-14 04:00N 47°36' W 052°42'0 0.0 200 / 71008.9 1.8 1.6
2019-Apr-14 03:00N 47°36' W 052°42'0 0.0 200 / 81010.2 2.1-0.7
2019-Apr-14 02:00N 47°36' W 052°42'0 0.0 200 / 71011.4 2.4-5.8
2019-Apr-14 01:00N 47°36' W 052°42'0 0.0 200 / 71012.1 2.6-11.1
2019-Apr-14 00:00N 47°36' W 052°42'0 0.0 200 / 71013.2 3.4-11.0
2019-Apr-13 23:00N 47°36' W 052°42'0 0.0 210 / 91014.7 4.1-11.0
2019-Apr-13 22:00N 47°36' W 052°42'0 0.0 210 / 91014.5 4.7-8.7
2019-Apr-13 21:00N 47°36' W 052°42'0 0.0 220 / 81015.2 5.2-11.2
2019-Apr-13 20:00N 47°36' W 052°42'0 0.0 220 / 121015.7 6.4-16.9
2019-Apr-13 19:00N 47°36' W 052°42'0 0.0 210 / 111016.4 6.8-12.2
2019-Apr-13 18:00N 47°36' W 052°42'0 0.0 210 / 81017.1 7.2-12.4
2019-Apr-13 17:00N 47°36' W 052°42'0 0.0 230 / 51018.0 6.9-13.1
2019-Apr-13 16:00N 47°36' W 052°42'0 0.0 230 / 61018.3 6.3-13.4
2019-Apr-13 15:00N 47°36' W 052°42'0 0.0 240 / 71018.9 5.6-12.7
2019-Apr-13 14:00N 47°36' W 052°42'0 0.0 230 / 51019.6 3.8-12.2
2019-Apr-13 13:00N 47°36' W 052°42'0 0.0 250 / 51020.1 3.1-11.2
2019-Apr-13 11:00N 47°36' W 052°42'0 0.0 210 / 61020.1 0.1-7.7
2019-Apr-13 10:00N 47°36' W 052°42'0 0.0 200 / 61019.5 -1.3-6.9
2019-Apr-13 09:00N 47°36' W 052°42'0 0.0 200 / 41018.3 -2.7-7.2
2019-Apr-13 08:00N 47°36' W 052°42'0 0.0 190 / 51018.5 -2.8-7.5
2019-Apr-13 07:00N 47°36' W 052°42'0 0.0 190 / 41018.0 -1.6-7.5
2019-Apr-13 06:00N 47°36' W 052°42'0 0.0 190 / 31017.7 -2.0-7.3
2019-Apr-13 05:00N 47°36' W 052°42'0 0.0 200 / 41017.7 -2.0-7.4
2019-Apr-13 04:00N 47°36' W 052°42'0 0.0 200 / 41017.7 -2.6-4.9
2019-Apr-13 03:00N 47°36' W 052°42'0 0.0 200 / 41017.2 -2.6-3.2
2019-Apr-13 02:00N 47°36' W 052°42'0 0.0 190 / 71017.2 -2.3-4.1
2019-Apr-13 01:00N 47°36' W 052°42'0 0.0 190 / 41017.4 -1.8-4.3
2019-Apr-13 00:00N 47°36' W 052°42'0 0.0 010 / 31016.5 -1.3-4.1
2019-Apr-12 23:00N 47°36' W 052°42'0 0.0 010 / 51015.5 -0.8-4.0
2019-Apr-12 22:00N 47°36' W 052°42'0 0.0 020 / 51014.7 0.1-6.0
2019-Apr-12 21:00N 47°36' W 052°42'0 0.0 030 / 61014.1 1.5-7.1
2019-Apr-12 20:00N 47°36' W 052°42'0 0.0 020 / 91013.6 1.6-6.4
2019-Apr-12 19:00N 47°36' W 052°42'0 0.0 030 / 81012.7 1.8-3.4
2019-Apr-12 18:00N 47°36' W 052°42'0 0.0 250 / 41012.7 5.9-6.1
2019-Apr-12 16:00N 47°36' W 052°42'0 0.0 250 / 61013.1 4.9-5.1
2019-Apr-12 15:00N 47°36' W 052°42'0 0.0 220 / 51013.6 4.9-4.2
2019-Apr-12 14:00N 47°36' W 052°42'0 0.0 230 / 51014.0 3.9-3.7
2019-Apr-12 13:00N 47°36' W 052°42'0 0.0 260 / 51014.0 2.5-2.5
2019-Apr-12 12:00N 47°36' W 052°42'0 0.0 220 / 51014.2 1.3-0.4
2019-Apr-12 11:00N 47°36' W 052°42'   270 / 21014.3 0.7 0.3
Track history (hours):
 
Tides and Currents Weather Stations Pressure Air Temp Water Temp Dewpoint Dewpoint Depression Visibility Wind Speed Wind Dir Waves Ship Positions

Oceanographic research ship Hudson (Canada)

Detailed information on ship capabilities available from University of Delaware's Ocean Information Center.

Last reported at 2019-Apr-22 11:00 UTC. Time now 2019-Jun-19 21:07 UTC.
Position N 47°36' W 052°42'.
Warning: this ship's position is 58 days out of date.

Length 85.03 m; beam 15.2 m; draft 6.28 m.

Type: SAR. MMSI: 316024000.

Wind from 210 at 15 knots

Barometer 1021.1 mb
Air temperature 15.5 ° C
Dewpoint 15.6 ° C

Date/timePositionNaut miles runAvg speedWind from/ knotsBaromVisibWave heightAir tempDewpointWater temp
2019-Apr-22 11:00N 47°36' W 052°42'0 0.0 210 / 151021.1 15.515.6
2019-Apr-22 10:00N 47°36' W 052°42'0 0.0 210 / 161021.1 14.314.5
2019-Apr-22 09:00N 47°36' W 052°42'0 0.0 200 / 161021.3 13.914.0
2019-Apr-22 08:00N 47°36' W 052°42'0 0.0 210 / 171021.3 14.414.4
2019-Apr-22 06:00N 47°36' W 052°42'0 0.0 200 / 161022.8 14.013.9
2019-Apr-22 04:00N 47°36' W 052°42'0 0.0 200 / 121024.3 14.814.7
2019-Apr-22 02:00N 47°36' W 052°42'0 0.0 200 / 101025.9 13.813.8
2019-Apr-22 01:00N 47°36' W 052°42'0 0.0 200 / 91026.5 13.013.2
2019-Apr-22 00:00N 47°36' W 052°42'28123028.7 200 / 101027.1 12.913.2
2019-Apr-21 23:04N 49°02' W 123°09'28122625.1
2019-Apr-21 22:00N 47°36' W 052°42'0 0.0 200 / 91027.5 12.913.1
2019-Apr-21 21:00N 47°36' W 052°42'0 0.0 200 / 71027.7 11.912.2
2019-Apr-21 19:00N 47°36' W 052°42'0 0.0 210 / 81029.5 6.9 7.1
2019-Apr-21 18:00N 47°36' W 052°42'0 0.0 210 / 71030.7 4.7 4.9
2019-Apr-21 17:00N 47°36' W 052°42'0 0.0 220 / 51031.5 4.6 4.7
2019-Apr-21 16:00N 47°36' W 052°42'0 0.0 200 / 61032.7 4.3 4.5
2019-Apr-21 15:00N 47°36' W 052°42'0 0.0 200 / 51033.0 4.6 4.7
2019-Apr-21 14:00N 47°36' W 052°42'0 0.0 240 / 31033.7 5.0 5.1
2019-Apr-21 12:00N 47°36' W 052°42'0 0.0 190 / 41033.1 5.2 5.2
2019-Apr-21 11:00N 47°36' W 052°42'0 0.0 160 / 11032.8 5.2 5.5
2019-Apr-21 08:00N 47°36' W 052°42'0 0.0 200 / 21031.1 1.6 1.9
2019-Apr-21 07:00N 47°36' W 052°42'0 0.0 190 / 21031.3 1.9 2.2
2019-Apr-21 06:00N 47°36' W 052°42'0 0.0 040 / 11030.0 2.0 2.3
2019-Apr-21 05:00N 47°36' W 052°42'0 0.0 040 / 31029.5 1.9 2.2
2019-Apr-21 04:00N 47°36' W 052°42'0 0.0 020 / 31028.6 2.3 2.7
2019-Apr-21 02:00N 47°36' W 052°42'0 0.0 350 / 11027.1 2.1 2.4
2019-Apr-21 01:00N 47°36' W 052°42'28124146.1 350 / 21026.6 1.6 1.9
2019-Apr-21 00:19N 49°02' W 123°09'28128743.4
2019-Apr-21 00:00N 47°36' W 052°42'0 0.0 020 / 61025.8 1.8 2.1
2019-Apr-20 23:00N 47°36' W 052°42'0 0.0 010 / 61024.8 3.1 3.4
2019-Apr-20 22:00N 47°36' W 052°42'0 0.0 030 / 51024.2 3.4 3.6
2019-Apr-20 21:00N 47°36' W 052°42'0 0.0 330 / 11022.4 4.6 4.9
2019-Apr-20 20:00N 47°36' W 052°42'0 0.0 030 / 51022.6 4.8 5.0
2019-Apr-20 19:00N 47°36' W 052°42'0 0.0 060 / 51022.7 5.6 5.8
2019-Apr-20 17:00N 47°36' W 052°42'0 0.0 070 / 61021.5 6.0 6.2
2019-Apr-20 16:00N 47°36' W 052°42'0 0.0 010 / 31020.7 5.8 5.9
2019-Apr-20 15:00N 47°36' W 052°42'0 0.0 230 / 21020.2 6.6 6.8
2019-Apr-20 14:00N 47°36' W 052°42'0 0.0 190 / 41019.7 6.1 6.3
2019-Apr-20 13:00N 47°36' W 052°42'0 0.0 200 / 41019.2 5.8 6.0
2019-Apr-20 11:00N 47°36' W 052°42'0 0.0 190 / 31017.2 5.7 6.0
2019-Apr-20 10:00N 47°36' W 052°42'0 0.0 200 / 51016.7 5.6 5.9
2019-Apr-20 09:00N 47°36' W 052°42'0 0.0 200 / 71015.7 5.7 5.9
2019-Apr-20 08:00N 47°36' W 052°42'0 0.0 210 / 81014.4 6.1 6.4
2019-Apr-20 07:00N 47°36' W 052°42'0 0.0 210 / 61013.3 6.2 6.4
2019-Apr-20 06:00N 47°36' W 052°42'0 0.0 210 / 101012.9 6.1 6.3
2019-Apr-20 05:00N 47°36' W 052°42'0 0.0 200 / 111012.6 6.0 6.1
2019-Apr-20 04:00N 47°36' W 052°42'0 0.0 200 / 121013.1 5.7 5.9
2019-Apr-20 02:00N 47°36' W 052°42'0 0.0 200 / 101015.5 2.9 3.0
2019-Apr-20 01:00N 47°36' W 052°42'0 0.0 200 / 121017.0 1.9 2.0
2019-Apr-19 23:00N 47°36' W 052°42'0 0.0 190 / 111018.1 0.7 0.7
2019-Apr-19 22:00N 47°36' W 052°42'0 0.0 190 / 121019.8 0.1 0.1
2019-Apr-19 20:00N 47°36' W 052°42'0 0.0 190 / 91021.9 0.1-0.0
2019-Apr-19 19:00N 47°36' W 052°42'0 0.0 190 / 71023.4 2.0-6.0
2019-Apr-19 18:00N 47°36' W 052°42'0 0.0 190 / 121024.7 3.1-7.8
2019-Apr-19 17:00N 47°36' W 052°42'0 0.0 200 / 131025.4 4.0-12.0
2019-Apr-19 15:00N 47°36' W 052°42'0 0.0 200 / 121026.2 5.4-11.1
2019-Apr-19 14:00N 47°36' W 052°42'0 0.0 200 / 101026.4 5.1-9.0
2019-Apr-19 13:00N 47°36' W 052°42'0 0.0 200 / 111026.9 4.4-10.4
2019-Apr-19 10:00N 47°36' W 052°42'0 0.0 190 / 41027.3 -2.8-2.9
2019-Apr-19 09:00N 47°36' W 052°42'0 0.0 190 / 51027.3 -4.7-4.8
2019-Apr-19 08:00N 47°36' W 052°42'0 0.0 190 / 41026.7 -5.0-5.1
2019-Apr-19 07:00N 47°36' W 052°42'0 0.0 200 / 31026.6 -5.1-5.3
2019-Apr-19 06:00N 47°36' W 052°42'0 0.0 200 / 31026.7 -4.7-4.9
2019-Apr-19 05:00N 47°36' W 052°42'0 0.0 200 / 41026.9 -4.3-4.8
2019-Apr-19 04:00N 47°36' W 052°42'0 0.0 190 / 51027.3 -3.8-5.3
2019-Apr-19 03:00N 47°36' W 052°42'0 0.0 200 / 41027.5 -3.0-5.9
2019-Apr-19 02:00N 47°36' W 052°42'0 0.0 200 / 21027.1 -2.2-6.3
2019-Apr-19 01:00N 47°36' W 052°42'0 0.0 010 / 31026.6 -0.6-7.5
2019-Apr-19 00:00N 47°36' W 052°42'0 0.0 350 / 21026.2 -0.1-8.1
2019-Apr-18 23:00N 47°36' W 052°42'0 0.0 300 / 31025.6 0.3-9.1
2019-Apr-18 22:00N 47°36' W 052°42'0 0.0 320 / 51024.9 0.4-9.7
2019-Apr-18 21:00N 47°36' W 052°42'0 0.0 320 / 41023.6 0.7-8.3
2019-Apr-18 20:00N 47°36' W 052°42'0 0.0 330 / 41022.7 1.0-7.1
2019-Apr-18 19:00N 47°36' W 052°42'0 0.0 320 / 61021.8 1.2-6.8
2019-Apr-18 18:00N 47°36' W 052°42'0 0.0 330 / 61021.0 1.2-6.6
2019-Apr-18 17:00N 47°36' W 052°42'0 0.0 320 / 51020.5 0.9-5.5
2019-Apr-18 16:00N 47°36' W 052°42'0 0.0 330 / 41019.5 1.0-5.1
2019-Apr-18 15:00N 47°36' W 052°42'0 0.0 320 / 71018.6 0.8-4.2
2019-Apr-18 13:00N 47°36' W 052°42'0 0.0 320 / 51017.0 0.3-2.1
2019-Apr-18 12:00N 47°36' W 052°42'0 0.0 320 / 51016.0 -0.1-1.9
2019-Apr-18 11:00N 47°36' W 052°42'0 0.0 320 / 61015.0 -0.2-1.6
2019-Apr-18 09:00N 47°36' W 052°42'0 0.0 330 / 41012.3 -0.4-1.8
2019-Apr-18 08:00N 47°36' W 052°42'0 0.0 320 / 61010.8 -0.5-1.9
2019-Apr-18 07:00N 47°36' W 052°42'0 0.0 300 / 51009.8 -0.4-2.0
2019-Apr-18 06:00N 47°36' W 052°42'0 0.0 330 / 41008.9 -0.2-2.1
2019-Apr-18 05:00N 47°36' W 052°42'0 0.0 330 / 61008.0 -0.1-1.9
2019-Apr-18 04:00N 47°36' W 052°42'0 0.0 330 / 61007.2 -0.0-1.3
2019-Apr-18 03:00N 47°36' W 052°42'0 0.0 340 / 41006.3 -0.1-0.4
2019-Apr-18 02:00N 47°36' W 052°42'0 0.0 330 / 61005.2 -0.0-0.2
2019-Apr-18 00:00N 47°36' W 052°42'0 0.0 350 / 71002.3 0.3 0.1
2019-Apr-17 23:00N 47°36' W 052°42'0 0.0 350 / 81000.4 0.4 0.2
2019-Apr-17 22:00N 47°36' W 052°42'0 0.0 350 / 9998.2 0.5 0.4
2019-Apr-17 21:00N 47°36' W 052°42'0 0.0 360 / 9996.0 0.8 0.7
2019-Apr-17 19:00N 47°36' W 052°42'0 0.0 360 / 11991.7 1.7 1.5
2019-Apr-17 18:00N 47°36' W 052°42'0 0.0 350 / 8989.7 2.2 2.0
2019-Apr-17 17:00N 47°36' W 052°42'0 0.0 340 / 8988.0 2.2 2.0
2019-Apr-17 16:00N 47°36' W 052°42'0 0.0 330 / 8986.5 2.1 1.9
2019-Apr-17 15:00N 47°36' W 052°42'28122875.6 340 / 7985.2 2.0 1.9
2019-Apr-17 14:01N 49°02' W 123°09'2812128162.6
2019-Apr-17 14:00N 47°36' W 052°42'0 0.0 330 / 6983.7 1.7 1.7
2019-Apr-17 13:00N 47°36' W 052°42'0 0.0 310 / 3982.5 1.6 1.6
2019-Apr-17 12:00N 47°36' W 052°42'0 0.0 250 / 4981.4 1.5 1.5
2019-Apr-17 10:00N 47°36' W 052°42'0 0.0 200 / 10980.1 0.7 0.7
2019-Apr-17 09:00N 47°36' W 052°42'0 0.0 210 / 10979.5 0.7 0.6
2019-Apr-17 08:00N 47°36' W 052°42'0 0.0 200 / 9979.1 0.6 0.6
2019-Apr-17 07:00N 47°36' W 052°42'0 0.0 210 / 9979.2 0.9 0.9
2019-Apr-17 05:00N 47°36' W 052°42'0 0.0 200 / 8979.7 1.4 1.3
2019-Apr-17 03:00N 47°36' W 052°42'0 0.0 190 / 7980.5 1.6 1.5
2019-Apr-17 02:00N 47°36' W 052°42'0 0.0 200 / 11980.6 1.7 1.7
2019-Apr-17 01:00N 47°36' W 052°42'0 0.0 200 / 10981.6 2.0 2.0
2019-Apr-17 00:00N 47°36' W 052°42'0 0.0 190 / 11982.4 2.3 2.3
2019-Apr-16 23:00N 47°36' W 052°42'0 0.0 200 / 8983.1 2.8 2.8
2019-Apr-16 22:00N 47°36' W 052°42'0 0.0 200 / 10983.4 3.5 3.5
2019-Apr-16 21:00N 47°36' W 052°42'0 0.0 200 / 12983.8 5.2 5.2
2019-Apr-16 20:00N 47°36' W 052°42'0 0.0 200 / 11984.2 6.0 6.1
2019-Apr-16 17:00N 47°36' W 052°42'0 0.0 200 / 12986.5 9.4 9.6
2019-Apr-16 16:00N 47°36' W 052°42'0 0.0 010 / 2987.8 5.1 5.4
2019-Apr-16 15:00N 47°36' W 052°42'0 0.0 360 / 1989.0 3.8 4.1
2019-Apr-16 14:00N 47°36' W 052°42'0 0.0 010 / 3990.3 2.6 2.9
2019-Apr-16 13:00N 47°36' W 052°42'0 0.0 010 / 2991.3 1.9 2.1
2019-Apr-16 12:00N 47°36' W 052°42'0 0.0 200 / 1992.5 1.4 1.7
2019-Apr-16 11:00N 47°36' W 052°42'28121072.2 360 / 1993.1 1.1 1.3
2019-Apr-16 08:22N 49°02' W 123°09'28122042.5
2019-Apr-16 07:00N 47°36' W 052°42'0 0.0 999.9 0.1 0.2
2019-Apr-16 06:00N 47°36' W 052°42'0 0.0 080 / 11001.2 -0.4-0.3
2019-Apr-16 05:00N 47°36' W 052°42'0 0.0 050 / 61004.0 -0.7-0.7
2019-Apr-16 04:00N 47°36' W 052°42'0 0.0 110 / 21006.0 -0.6-0.6
2019-Apr-16 02:00N 47°36' W 052°42'0 0.0 030 / 21008.7 -0.4-0.4
2019-Apr-16 00:00N 47°36' W 052°42'0 0.0 140 / 11012.6 -0.4-0.6
2019-Apr-15 22:00N 47°36' W 052°42'0 0.0 200 / 11013.9 0.4-3.5
2019-Apr-15 21:00N 47°36' W 052°42'0 0.0 210 / 31014.3 0.9-6.4
2019-Apr-15 20:00N 47°36' W 052°42'0 0.0 210 / 41014.5 1.4-7.6
2019-Apr-15 19:00N 47°36' W 052°42'0 0.0 210 / 21015.2 2.6-9.5
2019-Apr-15 18:00N 47°36' W 052°42'0 0.0 200 / 71015.6 2.6-10.2
2019-Apr-15 17:00N 47°36' W 052°42'0 0.0 170 / 71015.7 3.8-12.1
2019-Apr-15 16:00N 47°36' W 052°42'0 0.0 120 / 41015.8 4.5-9.1
2019-Apr-15 15:00N 47°36' W 052°42'0 0.0 120 / 71015.4 4.6-8.5
2019-Apr-15 14:00N 47°36' W 052°42'0 0.0 100 / 51015.9 4.9-5.7
2019-Apr-15 13:00N 47°36' W 052°42'28122548.4 350 / 21016.7 3.7-1.3
2019-Apr-15 11:53N 49°02' W 123°09'28123137.5
2019-Apr-15 11:00N 47°36' W 052°42'0 0.0 020 / 21015.5 2.1-0.9
2019-Apr-15 10:00N 47°36' W 052°42'0 0.0 190 / 41015.2 -0.3-0.5
2019-Apr-15 09:00N 47°36' W 052°42'0 0.0 190 / 41014.9 -1.6-1.8
2019-Apr-15 08:00N 47°36' W 052°42'0 0.0 150 / 11013.7 -0.4-1.4
2019-Apr-15 07:00N 47°36' W 052°42'0 0.0 010 / 11013.1 0.4-1.7
2019-Apr-15 06:00N 47°36' W 052°42'0 0.0 290 / 11012.4 1.1-1.9
2019-Apr-15 05:00N 47°36' W 052°42'0 0.0 340 / 11011.5 2.1-2.3
2019-Apr-15 03:00N 47°36' W 052°42'0 0.0 210 / 21010.5 2.5-1.5
2019-Apr-15 02:00N 47°36' W 052°42'0 0.0 310 / 21009.9 3.1-2.3
2019-Apr-15 01:00N 47°36' W 052°42'0 0.0 310 / 31008.9 3.2-1.7
2019-Apr-15 00:00N 47°36' W 052°42'0 0.0 320 / 31007.4 3.7-0.3
2019-Apr-14 23:00N 47°36' W 052°42'0 0.0 350 / 41005.8 3.8 1.9
2019-Apr-14 19:00N 47°36' W 052°42'0 0.0 230 / 111000.2 9.2-0.9
2019-Apr-14 18:00N 47°36' W 052°42'0 0.0 230 / 10999.4 10.4 1.5
2019-Apr-14 17:00N 47°36' W 052°42'0 0.0 230 / 9999.9 9.7 5.9
2019-Apr-14 16:00N 47°36' W 052°42'0 0.0 230 / 91000.2 7.9 7.2
2019-Apr-14 15:00N 47°36' W 052°42'0 0.0 230 / 11999.6 7.4 7.2
2019-Apr-14 13:00N 47°36' W 052°42'0 0.0 220 / 81000.6 5.6 5.7
2019-Apr-14 12:00N 47°36' W 052°42'0 0.0 210 / 71000.6 6.5 6.6
2019-Apr-14 11:00N 47°36' W 052°42'0 0.0 190 / 41001.4 4.9 5.0
2019-Apr-14 10:00N 47°36' W 052°42'0 0.0 190 / 71002.7 3.6 3.7
2019-Apr-14 09:00N 47°36' W 052°42'0 0.0 190 / 31003.3 3.1 3.2
2019-Apr-14 08:00N 47°36' W 052°42'0 0.0 200 / 31003.2 2.6 2.7
2019-Apr-14 07:00N 47°36' W 052°42'0 0.0 230 / 21004.2 2.5 2.5
2019-Apr-14 06:00N 47°36' W 052°42'0 0.0 190 / 71005.7 2.1 2.1
2019-Apr-14 05:00N 47°36' W 052°42'0 0.0 200 / 61007.6 1.8 1.7
2019-Apr-14 04:00N 47°36' W 052°42'0 0.0 200 / 71008.9 1.8 1.6
2019-Apr-14 03:00N 47°36' W 052°42'0 0.0 200 / 81010.2 2.1-0.7
2019-Apr-14 02:00N 47°36' W 052°42'0 0.0 200 / 71011.4 2.4-5.8
2019-Apr-14 01:00N 47°36' W 052°42'0 0.0 200 / 71012.1 2.6-11.1
2019-Apr-14 00:00N 47°36' W 052°42'0 0.0 200 / 71013.2 3.4-11.0
2019-Apr-13 23:00N 47°36' W 052°42'0 0.0 210 / 91014.7 4.1-11.0
2019-Apr-13 22:00N 47°36' W 052°42'0 0.0 210 / 91014.5 4.7-8.7
2019-Apr-13 21:00N 47°36' W 052°42'0 0.0 220 / 81015.2 5.2-11.2
2019-Apr-13 20:00N 47°36' W 052°42'0 0.0 220 / 121015.7 6.4-16.9
2019-Apr-13 19:00N 47°36' W 052°42'0 0.0 210 / 111016.4 6.8-12.2
2019-Apr-13 18:00N 47°36' W 052°42'0 0.0 210 / 81017.1 7.2-12.4
2019-Apr-13 17:00N 47°36' W 052°42'0 0.0 230 / 51018.0 6.9-13.1
2019-Apr-13 16:00N 47°36' W 052°42'0 0.0 230 / 61018.3 6.3-13.4
2019-Apr-13 15:00N 47°36' W 052°42'0 0.0 240 / 71018.9 5.6-12.7
2019-Apr-13 14:00N 47°36' W 052°42'0 0.0 230 / 51019.6 3.8-12.2
2019-Apr-13 13:00N 47°36' W 052°42'0 0.0 250 / 51020.1 3.1-11.2
2019-Apr-13 11:00N 47°36' W 052°42'0 0.0 210 / 61020.1 0.1-7.7
2019-Apr-13 10:00N 47°36' W 052°42'0 0.0 200 / 61019.5 -1.3-6.9
2019-Apr-13 09:00N 47°36' W 052°42'0 0.0 200 / 41018.3 -2.7-7.2
2019-Apr-13 08:00N 47°36' W 052°42'0 0.0 190 / 51018.5 -2.8-7.5
2019-Apr-13 07:00N 47°36' W 052°42'0 0.0 190 / 41018.0 -1.6-7.5
2019-Apr-13 06:00N 47°36' W 052°42'0 0.0 190 / 31017.7 -2.0-7.3
2019-Apr-13 05:00N 47°36' W 052°42'0 0.0 200 / 41017.7 -2.0-7.4
2019-Apr-13 04:00N 47°36' W 052°42'0 0.0 200 / 41017.7 -2.6-4.9
2019-Apr-13 03:00N 47°36' W 052°42'0 0.0 200 / 41017.2 -2.6-3.2
2019-Apr-13 02:00N 47°36' W 052°42'0 0.0 190 / 71017.2 -2.3-4.1
2019-Apr-13 01:00N 47°36' W 052°42'0 0.0 190 / 41017.4 -1.8-4.3
2019-Apr-13 00:00N 47°36' W 052°42'0 0.0 010 / 31016.5 -1.3-4.1
2019-Apr-12 23:00N 47°36' W 052°42'0 0.0 010 / 51015.5 -0.8-4.0
2019-Apr-12 22:00N 47°36' W 052°42'0 0.0 020 / 51014.7 0.1-6.0
2019-Apr-12 21:00N 47°36' W 052°42'0 0.0 030 / 61014.1 1.5-7.1
2019-Apr-12 20:00N 47°36' W 052°42'0 0.0 020 / 91013.6 1.6-6.4
2019-Apr-12 19:00N 47°36' W 052°42'0 0.0 030 / 81012.7 1.8-3.4
2019-Apr-12 18:00N 47°36' W 052°42'0 0.0 250 / 41012.7 5.9-6.1
2019-Apr-12 16:00N 47°36' W 052°42'0 0.0 250 / 61013.1 4.9-5.1
2019-Apr-12 15:00N 47°36' W 052°42'0 0.0 220 / 51013.6 4.9-4.2
2019-Apr-12 14:00N 47°36' W 052°42'0 0.0 230 / 51014.0 3.9-3.7
2019-Apr-12 13:00N 47°36' W 052°42'0 0.0 260 / 51014.0 2.5-2.5
2019-Apr-12 12:00N 47°36' W 052°42'0 0.0 220 / 51014.2 1.3-0.4
2019-Apr-12 11:00N 47°36' W 052°42'   270 / 21014.3 0.7 0.3

Dump ship's entire track history